createdAt,value
2023-01-23T00:00:08.261Z,98200.75
2023-01-23T00:03:13.408Z,98194.50
2023-01-23T00:06:16.606Z,98206.59
2023-01-23T00:09:18.291Z,98198.50
2023-01-23T00:12:19.847Z,98195.72
2023-01-23T00:15:21.367Z,98199.16
2023-01-23T00:18:22.844Z,98198.25
2023-01-23T00:21:26.877Z,98192.00
2023-01-23T00:24:28.510Z,98194.88
2023-01-23T00:27:30.161Z,98191.53
2023-01-23T00:30:33.557Z,98181.84
2023-01-23T00:33:35.491Z,98188.72
2023-01-23T00:36:39.790Z,98194.66
2023-01-23T00:39:41.322Z,98187.72
2023-01-23T00:42:45.648Z,98186.03
2023-01-23T00:45:47.265Z,98196.34
2023-01-23T00:48:49.426Z,98190.03
2023-01-23T00:51:51.103Z,98185.41
2023-01-23T00:54:52.620Z,98180.09
2023-01-23T00:57:54.209Z,98190.59
2023-01-23T01:00:55.868Z,98192.47
2023-01-23T01:03:58.135Z,98190.13
2023-01-23T01:06:59.689Z,98198.38
2023-01-23T01:10:01.207Z,98193.91
2023-01-23T01:13:03.334Z,98195.19
2023-01-23T01:16:05.953Z,98194.44
2023-01-23T01:19:10.184Z,98195.19
2023-01-23T01:22:11.682Z,98196.31
2023-01-23T01:25:13.247Z,98196.72
2023-01-23T01:28:14.936Z,98194.78
2023-01-23T01:31:17.127Z,98190.97
2023-01-23T01:34:18.870Z,98191.88
2023-01-23T01:37:22.535Z,98186.97
2023-01-23T01:40:34.407Z,98194.84
2023-01-23T01:43:36.318Z,98196.50
2023-01-23T01:46:38.467Z,98202.00
2023-01-23T01:49:41.077Z,98206.06
2023-01-23T01:52:44.119Z,98206.88
2023-01-23T01:55:45.768Z,98194.06
2023-01-23T01:58:51.088Z,98216.53
2023-01-23T02:01:58.154Z,98202.03
2023-01-23T02:05:04.009Z,98214.88
2023-01-23T02:08:31.594Z,98204.81
2023-01-23T02:11:34.148Z,98207.25
2023-01-23T02:14:35.900Z,98208.84
2023-01-23T02:17:38.183Z,98212.00
2023-01-23T02:20:39.901Z,98207.66
2023-01-23T02:23:50.916Z,98211.66
2023-01-23T02:26:57.272Z,98210.91
2023-01-23T02:30:00.084Z,98204.28
2023-01-23T02:33:12.502Z,98206.06
2023-01-23T02:36:14.274Z,98200.94
2023-01-23T02:39:19.630Z,98199.94
2023-01-23T02:42:26.292Z,98198.00
2023-01-23T02:45:28.467Z,98209.22
2023-01-23T02:48:30.059Z,98206.63
2023-01-23T02:51:34.477Z,98210.06
2023-01-23T02:54:36.651Z,98204.28
2023-01-23T02:57:38.266Z,98205.38
2023-01-23T03:00:39.830Z,98198.16
2023-01-23T03:03:44.214Z,98207.00
2023-01-23T03:06:45.707Z,98204.69
2023-01-23T03:09:48.695Z,98198.56
2023-01-23T03:12:50.191Z,98201.34
2023-01-23T03:15:53.112Z,98194.28
2023-01-23T03:18:55.236Z,98194.94
2023-01-23T03:21:57.546Z,98200.06
2023-01-23T03:24:59.065Z,98206.09
2023-01-23T03:28:00.648Z,98205.34
2023-01-23T03:31:02.216Z,98193.38
2023-01-23T03:34:04.674Z,98184.53
2023-01-23T03:37:09.089Z,98189.44
2023-01-23T03:40:38.310Z,98182.44
2023-01-23T03:43:40.728Z,98178.63
2023-01-23T03:46:42.255Z,98194.16
2023-01-23T03:49:43.973Z,98186.88
2023-01-23T03:52:45.643Z,98181.59
2023-01-23T03:55:48.154Z,98177.41
2023-01-23T03:58:50.316Z,98180.75
2023-01-23T04:01:54.092Z,98183.44
2023-01-23T04:04:55.810Z,98182.44
2023-01-23T04:07:57.341Z,98189.44
2023-01-23T04:11:07.329Z,98192.63
2023-01-23T04:14:09.149Z,98194.03
2023-01-23T04:17:11.192Z,98194.13
2023-01-23T04:20:13.112Z,98192.09
2023-01-23T04:23:16.993Z,98189.59
2023-01-23T04:26:18.532Z,98201.69
2023-01-23T04:29:20.037Z,98200.75
2023-01-23T04:32:22.062Z,98203.94
2023-01-23T04:35:23.745Z,98199.84
2023-01-23T04:38:28.644Z,98205.69
2023-01-23T04:41:31.367Z,98201.50
2023-01-23T04:44:37.423Z,98206.44
2023-01-23T04:48:05.090Z,98208.56
2023-01-23T04:51:09.658Z,98199.19
2023-01-23T04:54:12.188Z,98199.19
2023-01-23T04:57:13.781Z,98192.78
2023-01-23T05:00:16.301Z,98188.38
2023-01-23T05:03:18.271Z,98189.25
2023-01-23T05:06:21.709Z,98185.06
2023-01-23T05:09:23.280Z,98188.13
2023-01-23T05:12:27.162Z,98190.81
2023-01-23T05:15:30.778Z,98189.34
2023-01-23T05:18:32.570Z,98196.28
2023-01-23T05:21:34.167Z,98188.59
2023-01-23T05:24:36.240Z,98177.88
2023-01-23T05:27:39.329Z,98186.75
2023-01-23T05:30:41.209Z,98189.50
2023-01-23T05:34:05.608Z,98192.13
2023-01-23T05:37:10.409Z,98193.59
2023-01-23T05:40:13.845Z,98210.69
2023-01-23T05:43:53.955Z,98204.00
2023-01-23T05:47:12.839Z,98199.00
2023-01-23T05:50:18.142Z,98197.31
2023-01-23T05:53:19.876Z,98194.72
2023-01-23T05:56:24.275Z,98205.69
2023-01-23T05:59:44.701Z,98196.22
2023-01-23T06:03:24.690Z,98197.88
2023-01-23T06:06:46.525Z,98203.56
2023-01-23T06:09:48.271Z,98209.44
2023-01-23T06:12:49.793Z,98208.66
2023-01-23T06:15:51.796Z,98208.94
2023-01-23T06:18:53.681Z,98213.41
2023-01-23T06:21:55.488Z,98218.31
2023-01-23T06:24:57.208Z,98220.19
2023-01-23T06:27:58.727Z,98231.72
2023-01-23T06:31:04.119Z,98230.25
2023-01-23T06:34:15.384Z,98235.25
2023-01-23T06:37:27.317Z,98242.72
2023-01-23T06:40:28.855Z,98242.72
2023-01-23T06:43:50.386Z,98241.13
2023-01-23T06:46:56.633Z,98245.34
2023-01-23T06:50:01.907Z,98245.69
2023-01-23T06:53:05.559Z,98246.06
2023-01-23T06:56:08.336Z,98250.78
2023-01-23T06:59:12.246Z,98256.34
2023-01-23T07:02:15.275Z,98259.41
2023-01-23T07:05:22.285Z,98264.41
2023-01-23T07:08:23.936Z,98260.16
2023-01-23T07:11:27.100Z,98270.00
2023-01-23T07:14:31.345Z,98268.13
2023-01-23T07:17:33.486Z,98273.69
2023-01-23T07:20:35.594Z,98269.50
2023-01-23T07:23:37.257Z,98265.16
2023-01-23T07:26:38.796Z,98260.84
2023-01-23T07:29:41.542Z,98268.66
2023-01-23T07:32:43.604Z,98267.16
2023-01-23T07:35:45.087Z,98267.09
2023-01-23T07:38:46.624Z,98267.63
2023-01-23T07:41:48.527Z,98259.00
2023-01-23T07:44:50.135Z,98264.53
2023-01-23T07:47:51.708Z,98267.69
2023-01-23T07:50:53.426Z,98269.75
2023-01-23T07:53:55.030Z,98256.56
2023-01-23T07:56:56.597Z,98276.19
2023-01-23T07:59:58.206Z,98264.22
2023-01-23T08:02:59.871Z,98257.94
2023-01-23T08:06:01.382Z,98258.88
2023-01-23T08:09:02.952Z,98260.34
2023-01-23T08:12:05.165Z,98265.28
2023-01-23T08:15:07.467Z,98267.63
2023-01-23T08:18:09.003Z,98279.19
2023-01-23T08:21:11.294Z,98282.44
2023-01-23T08:24:13.696Z,98283.63
2023-01-23T08:27:15.316Z,98291.44
2023-01-23T08:30:17.237Z,98290.78
2023-01-23T08:33:19.836Z,98273.03
2023-01-23T08:36:21.747Z,98266.53
2023-01-23T08:39:24.515Z,98284.13
2023-01-23T08:42:26.472Z,98276.22
2023-01-23T08:45:28.171Z,98284.97
2023-01-23T08:48:29.924Z,98283.66
2023-01-23T08:51:31.574Z,98276.75
2023-01-23T08:54:33.554Z,98276.22
2023-01-23T08:57:35.057Z,98282.63
2023-01-23T09:00:36.547Z,98264.34
2023-01-23T09:03:38.756Z,98265.97
2023-01-23T09:06:40.305Z,98260.75
2023-01-23T09:09:41.867Z,98269.88
2023-01-23T09:12:43.734Z,98262.06
2023-01-23T09:15:46.784Z,98268.19
2023-01-23T09:18:48.418Z,98268.66
2023-01-23T09:21:53.736Z,98264.38
2023-01-23T09:24:55.288Z,98256.63
2023-01-23T09:27:57.089Z,98256.72
2023-01-23T09:31:03.028Z,98244.59
2023-01-23T09:34:04.785Z,98249.44
2023-01-23T09:37:06.697Z,98255.06
2023-01-23T09:40:16.908Z,98246.59
2023-01-23T09:43:31.731Z,98258.50
2023-01-23T09:46:59.129Z,98279.56
2023-01-23T09:50:05.575Z,98269.78
2023-01-23T09:53:20.673Z,98269.50
2023-01-23T09:56:30.018Z,98274.69
2023-01-23T09:59:50.231Z,98273.53
2023-01-23T10:03:11.262Z,98280.88
2023-01-23T10:06:23.783Z,98282.75
2023-01-23T10:09:50.337Z,98267.63
2023-01-23T10:13:07.896Z,98269.19
2023-01-23T10:16:21.154Z,98260.16
2023-01-23T10:19:59.918Z,98248.88
2023-01-23T10:23:36.542Z,98237.91
2023-01-23T10:26:43.596Z,98235.84
2023-01-23T10:30:00.189Z,98238.06
2023-01-23T10:33:11.765Z,98233.72
2023-01-23T10:40:00.813Z,98234.97
2023-01-23T10:43:02.849Z,98236.47
2023-01-23T10:46:16.358Z,98227.28
2023-01-23T10:49:47.697Z,98228.53
2023-01-23T10:52:49.310Z,98212.56
2023-01-23T10:55:53.425Z,98218.63
2023-01-23T10:59:00.996Z,98221.25
2023-01-23T11:02:02.725Z,98221.88
2023-01-23T11:05:52.804Z,98217.69
2023-01-23T11:09:01.124Z,98231.72
2023-01-23T11:12:05.185Z,98229.31
2023-01-23T11:15:22.369Z,98224.38
2023-01-23T11:18:32.758Z,98215.41
2023-01-23T11:21:35.668Z,98205.91
2023-01-23T11:24:41.275Z,98207.78
2023-01-23T11:27:57.464Z,98200.88
2023-01-23T11:31:17.673Z,98198.78
2023-01-23T11:34:23.645Z,98191.78
2023-01-23T11:37:28.128Z,98199.53
2023-01-23T11:40:29.613Z,98186.38
2023-01-23T11:43:31.230Z,98192.13
2023-01-23T11:46:57.441Z,98184.91
2023-01-23T11:49:58.940Z,98182.19
2023-01-23T11:53:12.635Z,98175.06
2023-01-23T11:56:34.043Z,98179.88
2023-01-23T11:59:46.496Z,98172.03
2023-01-23T12:03:16.151Z,98165.06
2023-01-23T12:06:25.964Z,98176.25
2023-01-23T12:09:40.068Z,98180.50
2023-01-23T12:12:59.597Z,98168.09
2023-01-23T12:16:22.970Z,98161.50
2023-01-23T12:19:52.407Z,98162.25
2023-01-23T12:23:19.993Z,98159.63
2023-01-23T12:26:22.989Z,98154.50
2023-01-23T12:29:47.343Z,98137.72
2023-01-23T12:33:19.980Z,98150.88
2023-01-23T12:36:44.135Z,98141.44
2023-01-23T12:40:09.828Z,98133.31
2023-01-23T12:43:38.501Z,98127.47
2023-01-23T12:46:45.785Z,98132.34
2023-01-23T12:50:13.618Z,98133.31
2023-01-23T12:53:22.969Z,98128.00
2023-01-23T12:56:31.337Z,98120.88
2023-01-23T12:59:42.260Z,98115.88
2023-01-23T13:02:54.380Z,98108.66
2023-01-23T13:05:58.818Z,98101.53
2023-01-23T13:09:24.911Z,98110.00
2023-01-23T13:12:28.271Z,98105.41
2023-01-23T13:15:40.246Z,98109.06
2023-01-23T13:19:12.137Z,98110.94
2023-01-23T13:22:29.060Z,98118.06
2023-01-23T13:25:32.183Z,98108.03
2023-01-23T13:28:46.580Z,98109.09
2023-01-23T13:31:50.551Z,98104.06
2023-01-23T13:34:52.384Z,98099.16
2023-01-23T13:37:54.136Z,98094.22
2023-01-23T13:41:05.025Z,98099.25
2023-01-23T13:44:40.342Z,98103.41
2023-01-23T14:22:46.703Z,98091.09
2023-01-23T14:25:48.530Z,98090.44
2023-01-23T14:29:00.331Z,98089.53
2023-01-23T14:32:02.332Z,98089.22
2023-01-23T14:35:16.609Z,98089.84
2023-01-23T14:38:31.680Z,98096.13
2023-01-23T14:41:41.391Z,98102.16
2023-01-23T14:44:46.710Z,98095.41
2023-01-23T14:47:59.634Z,98093.41
2023-01-23T14:51:22.584Z,98109.28
2023-01-23T14:54:26.381Z,98102.19
2023-01-23T14:57:31.284Z,98100.00
2023-01-23T15:00:35.701Z,98098.31
2023-01-23T15:03:45.374Z,98103.88
2023-01-23T15:06:53.687Z,98105.75
2023-01-23T15:09:55.225Z,98106.16
2023-01-23T15:13:03.267Z,98105.53
2023-01-23T15:16:11.242Z,98100.75
2023-01-23T15:19:24.660Z,98101.38
2023-01-23T15:22:29.148Z,98108.38
2023-01-23T15:25:33.587Z,98112.34
2023-01-23T15:28:43.033Z,98108.22
2023-01-23T15:31:52.694Z,98107.84
2023-01-23T15:34:57.532Z,98100.63
2023-01-23T15:38:04.771Z,98110.13
2023-01-23T15:41:10.672Z,98104.19
2023-01-23T15:44:17.962Z,98105.22
2023-01-23T15:47:19.682Z,98106.69
2023-01-23T15:50:21.204Z,98114.72
2023-01-23T15:53:22.787Z,98114.72
2023-01-23T15:56:34.820Z,98119.09
2023-01-23T15:59:36.866Z,98119.75
2023-01-23T16:02:47.127Z,98118.28
2023-01-23T16:05:56.545Z,98116.59
2023-01-23T16:09:05.289Z,98123.06
2023-01-23T16:12:15.079Z,98120.47
2023-01-23T16:15:25.716Z,98127.91
2023-01-23T16:18:27.480Z,98135.72
2023-01-23T16:21:30.341Z,98135.19
2023-01-23T16:24:36.611Z,98132.50
2023-01-23T16:27:38.469Z,98142.94
2023-01-23T16:30:40.011Z,98138.53
2023-01-23T16:33:41.754Z,98144.38
2023-01-23T16:36:43.584Z,98146.03
2023-01-23T16:39:46.693Z,98139.25
2023-01-23T16:42:50.203Z,98147.53
2023-01-23T16:45:56.105Z,98146.47
2023-01-23T16:48:57.835Z,98141.44
2023-01-23T16:52:01.533Z,98148.97
2023-01-23T16:55:11.984Z,98154.63
2023-01-23T16:58:18.313Z,98153.38
2023-01-23T17:01:23.479Z,98155.13
2023-01-23T17:04:25.298Z,98165.69
2023-01-23T17:07:26.833Z,98162.13
2023-01-23T17:10:45.536Z,98159.72
2023-01-23T17:13:54.772Z,98163.41
2023-01-23T17:17:06.014Z,98163.59
2023-01-23T17:20:12.370Z,98161.94
2023-01-23T17:23:14.542Z,98160.78
2023-01-23T17:26:18.315Z,98166.84
2023-01-23T17:29:20.102Z,98163.50
2023-01-23T17:32:42.834Z,98172.69
2023-01-23T17:35:44.995Z,98169.03
2023-01-23T17:38:46.665Z,98165.56
2023-01-23T17:41:48.298Z,98172.91
2023-01-23T17:44:50.563Z,98157.97
2023-01-23T17:47:54.858Z,98167.16
2023-01-23T17:50:56.958Z,98167.88
2023-01-23T17:53:58.883Z,98167.69
2023-01-23T17:57:00.418Z,98174.66
2023-01-23T18:00:03.356Z,98173.22
2023-01-23T18:03:13.899Z,98169.25
2023-01-23T18:06:15.437Z,98175.19
2023-01-23T18:09:18.966Z,98165.91
2023-01-23T18:12:35.222Z,98172.56
2023-01-23T18:15:57.302Z,98174.91
2023-01-23T18:19:01.243Z,98181.38
2023-01-23T18:22:03.356Z,98176.53
2023-01-23T18:25:05.342Z,98173.63
2023-01-23T18:28:19.366Z,98172.66
2023-01-23T18:31:31.275Z,98173.63
2023-01-23T18:34:43.667Z,98179.25
2023-01-23T18:37:50.423Z,98172.66
2023-01-23T18:41:14.708Z,98185.34
2023-01-23T18:44:23.614Z,98181.13
2023-01-23T18:47:25.740Z,98176.00
2023-01-23T18:50:27.575Z,98175.28
2023-01-23T18:53:41.891Z,98173.53
2023-01-23T18:57:15.178Z,98179.47
2023-01-23T19:00:24.595Z,98179.16
2023-01-23T19:03:38.812Z,98180.22
2023-01-23T19:06:41.708Z,98173.28
2023-01-23T19:09:46.518Z,98182.72
2023-01-23T19:12:48.148Z,98186.06
2023-01-23T19:16:14.330Z,98178.00
2023-01-23T19:19:34.693Z,98183.44
2023-01-23T19:23:02.780Z,98179.25
2023-01-23T19:26:04.588Z,98187.59
2023-01-23T19:29:20.326Z,98183.34
2023-01-23T19:32:23.142Z,98181.13
2023-01-23T19:35:24.750Z,98182.09
2023-01-23T19:38:26.316Z,98194.91
2023-01-23T19:41:42.958Z,98197.13
2023-01-23T19:44:44.530Z,98201.81
2023-01-23T19:47:49.437Z,98198.47
2023-01-23T19:50:50.960Z,98193.47
2023-01-23T19:53:54.276Z,98198.41
2023-01-23T19:56:55.848Z,98199.75
2023-01-23T19:59:57.538Z,98186.34
2023-01-23T20:03:00.212Z,98186.25
2023-01-23T20:06:02.058Z,98202.66
2023-01-23T20:09:03.588Z,98202.66
2023-01-23T20:12:05.418Z,98197.13
2023-01-23T20:15:07.927Z,98196.72
2023-01-23T20:18:11.025Z,98206.53
2023-01-23T20:21:20.388Z,98207.88
2023-01-23T20:24:22.339Z,98209.78
2023-01-23T20:27:24.096Z,98207.47
2023-01-23T20:30:25.766Z,98208.06
2023-01-23T20:33:27.378Z,98204.53
2023-01-23T20:36:28.990Z,98193.03
2023-01-23T20:39:34.210Z,98198.03
2023-01-23T20:42:35.978Z,98211.00
2023-01-23T20:45:45.494Z,98205.34
2023-01-23T20:48:47.198Z,98206.94
2023-01-23T20:51:49.315Z,98207.66
2023-01-23T20:54:50.909Z,98207.56
2023-01-23T20:58:11.195Z,98201.63
2023-01-23T21:01:13.888Z,98206.84
2023-01-23T21:04:15.495Z,98206.84
2023-01-23T21:07:17.579Z,98198.38
2023-01-23T21:10:19.281Z,98193.25
2023-01-23T21:13:21.203Z,98191.03
2023-01-23T21:16:22.733Z,98181.09
2023-01-23T21:19:24.347Z,98176.09
2023-01-23T21:22:25.836Z,98187.38
2023-01-23T21:25:27.463Z,98191.41
2023-01-23T21:28:31.308Z,98193.22
2023-01-23T21:31:35.582Z,98194.69
2023-01-23T21:34:37.398Z,98200.66
2023-01-23T21:37:40.096Z,98192.38
2023-01-23T21:40:41.685Z,98198.22
2023-01-23T21:43:43.354Z,98200.13
2023-01-23T21:46:47.030Z,98197.28
2023-01-23T21:49:49.570Z,98195.22
2023-01-23T21:52:51.177Z,98204.38
2023-01-23T21:55:52.811Z,98195.81
2023-01-23T21:58:55.295Z,98190.69
2023-01-23T22:01:56.836Z,98201.97
2023-01-23T22:04:58.457Z,98207.56
2023-01-23T22:08:00.123Z,98204.31
2023-01-23T22:11:02.051Z,98206.94
2023-01-23T22:14:04.415Z,98200.13
2023-01-23T22:17:07.982Z,98221.03
2023-01-23T22:20:10.483Z,98212.06
2023-01-23T22:23:12.078Z,98214.53
2023-01-23T22:26:13.675Z,98220.72
2023-01-23T22:29:15.296Z,98213.59
2023-01-23T22:32:16.957Z,98216.13
2023-01-23T22:35:19.224Z,98218.31
2023-01-23T22:38:21.061Z,98213.28
2023-01-23T22:41:23.493Z,98206.19
2023-01-23T22:44:26.196Z,98207.03
2023-01-23T22:47:27.813Z,98199.91
2023-01-23T22:50:29.729Z,98208.91
2023-01-23T22:53:31.512Z,98206.50
2023-01-23T22:56:33.227Z,98210.91
2023-01-23T22:59:34.850Z,98205.06
2023-01-23T23:02:37.454Z,98198.25
2023-01-23T23:05:39.013Z,98197.94
2023-01-23T23:08:41.504Z,98211.63
2023-01-23T23:11:44.099Z,98210.47
2023-01-23T23:14:45.626Z,98211.81
2023-01-23T23:17:47.271Z,98206.47
2023-01-23T23:20:48.932Z,98215.88
2023-01-23T23:23:51.158Z,98211.41
2023-01-23T23:26:52.828Z,98214.13
2023-01-23T23:29:54.378Z,98212.53
2023-01-23T23:32:55.926Z,98210.56
2023-01-23T23:35:57.491Z,98203.03
2023-01-23T23:38:59.213Z,98207.66
2023-01-23T23:42:00.810Z,98212.06
2023-01-23T23:45:02.355Z,98209.19
2023-01-23T23:48:03.929Z,98202.44
2023-01-23T23:51:08.278Z,98202.44
2023-01-23T23:54:09.804Z,98208.28
2023-01-23T23:57:11.372Z,98209.09
